Latest Weather Observations for Gabo Island

IDV60801

Issued at 8:03 am EDT Thursday 30 March 2017 (issued every 30 minutes, with the page automatically refreshed every 10 minutes)

About weather observations | Map of weather stations | Latest weather observations for VIC | Other Formats
Station Details ID: 084016 Name: GABO ISLAND LIGHTHOUSE Lat: -37.57 Lon: 149.92 Height: 15.2 m
Data from the previous 72 hours. | See also: Recent months at Gabo Island
Date/Time
EDT
Temp
°C
App
Temp
°C
Dew
Point
°C
Rel
Hum
%
Delta-T
°C
Wind Press
QNH
hPa
Press
MSL
hPa
Rain since
9am
mm
Dir  Spd
km/h
Gust
km/h
Spd
kts
Gust
kts
30/08:00am 15.0 7.2 11.1 77 2.1 WSW 43 56 23 30 1011.9 - 0.0
30/07:30am 15.1 5.9 10.8 75 2.3 WSW 50 61 27 33 1011.5 - 0.0
30/07:00am 15.6 7.3 11.3 75 2.3 WSW 46 57 25 31 1010.9 - 0.0
30/06:30am 15.6 6.3 10.7 72 2.6 WSW 50 63 27 34 1010.6 - 0.0
30/06:00am 15.5 5.7 12.8 84 1.5 WSW 56 69 30 37 1009.7 1009.5 0.0
30/05:30am 16.3 6.9 12.7 79 2.0 WSW 54 65 29 35 1008.9 - 0.0
30/05:00am 16.2 7.2 13.9 86 1.3 WSW 54 65 29 35 1008.6 - 0.0
30/04:30am 17.0 8.0 14.0 82 1.7 WSW 54 72 29 39 1008.0 - 0.0
30/04:00am 17.5 8.0 15.1 86 1.4 WSW 59 74 32 40 1006.6 - 0.0
30/03:33am 18.1 9.7 15.6 85 1.5 WSW 54 72 29 39 1006.9 - 0.0
30/03:30am 18.3 9.4 15.4 83 1.7 WSW 56 72 30 39 1006.9 - 0.0
30/03:00am 18.6 10.1 16.3 86 1.4 WSW 56 69 30 37 1006.8 1006.7 0.0
30/02:46am 19.0 11.6 16.3 84 1.6 WSW 50 69 27 37 1007.0 - 0.0
30/02:30am 19.2 11.8 14.2 73 2.9 W 46 54 25 29 1007.1 - 0.0
30/02:12am 19.3 15.6 14.9 75 2.6 WSW 28 50 15 27 1006.7 - 0.0
30/02:00am 19.2 17.5 13.6 70 3.2 WNW 15 20 8 11 1006.0 - 0.0
30/01:30am 19.4 17.1 14.6 74 2.8 W 20 28 11 15 1005.4 - 0.0
30/01:00am 19.2 16.1 15.7 80 2.1 W 26 28 14 15 1005.3 - 0.0
30/12:30am 18.6 16.8 16.1 85 1.5 W 20 24 11 13 1005.5 - 0.0
30/12:00am 18.2 17.1 16.4 89 1.1 W 17 20 9 11 1005.7 1005.6 0.0
 
Date/Time
EDT
Temp
°C
App
Temp
°C
Dew
Point
°C
Rel
Hum
%
Delta-T
°C
Wind Press
QNH
hPa
Press
MSL
hPa
Rain since
9am
mm
Dir  Spd
km/h
Gust
km/h
Spd
kts
Gust
kts
29/11:30pm 18.4 17.4 16.7 90 1.0 W 17 19 9 10 1005.9 - 0.0
29/11:00pm 18.7 17.3 17.1 90 1.0 W 20 22 11 12 1006.0 - 0.0
29/10:30pm 19.3 17.1 17.8 91 0.9 WSW 26 32 14 17 1005.9 - 0.0
29/10:00pm 18.8 17.6 17.5 92 0.8 WSW 20 24 11 13 1005.7 - 0.0
29/09:30pm 18.3 17.8 17.0 92 0.8 W 15 17 8 9 1005.3 - 0.0
29/09:00pm 19.5 20.6 17.2 86 1.4 WNW 7 9 4 5 1004.9 1004.8 0.0
29/08:30pm 18.1 19.8 16.1 88 1.2 WNW 2 7 1 4 1004.8 - 0.0
29/08:00pm 19.2 18.7 16.0 82 1.9 NNE 13 15 7 8 1004.4 - 0.0
29/07:30pm 19.3 18.6 16.3 83 1.8 NNE 15 19 8 10 1004.2 - 0.0
29/07:00pm 19.5 18.8 16.3 82 1.9 N 15 20 8 11 1004.0 - 0.0
29/06:30pm 20.2 21.3 17.1 82 1.9 N 7 9 4 5 1004.0 - 0.0
29/06:00pm 20.9 22.1 17.3 80 2.2 NW 7 9 4 5 1004.2 1004.1 0.0
29/05:30pm 20.6 20.4 16.8 79 2.3 NNE 13 17 7 9 1004.3 - 0.0
29/05:00pm 21.2 20.0 17.1 77 2.5 NNE 19 24 10 13 1004.5 - 0.0
29/04:30pm 21.0 19.1 16.7 76 2.6 NNE 22 26 12 14 1004.7 - 0.0
29/04:00pm 21.8 21.5 17.3 75 2.8 NNE 15 19 8 10 1005.2 - 0.0
29/03:30pm 22.1 21.3 17.1 73 3.1 NNE 17 20 9 11 1005.6 - 0.0
29/03:00pm 22.3 20.3 17.5 74 3.0 NE 24 28 13 15 1005.8 1005.7 0.0
29/02:30pm 22.6 20.9 17.3 72 3.3 NNE 22 28 12 15 1006.2 - 0.0
29/02:00pm 22.7 19.5 16.3 67 3.9 NNE 28 33 15 18 1006.5 - 0.0
29/01:30pm 22.3 19.6 16.6 70 3.5 NE 26 30 14 16 1007.1 - 0.0
29/01:00pm 22.4 19.8 16.9 71 3.4 NE 26 32 14 17 1007.5 - 0.0
29/12:30pm 22.8 19.8 16.9 69 3.6 NE 28 33 15 18 1008.2 - 0.0
29/12:00pm 22.7 20.1 16.8 69 3.6 NNE 26 32 14 17 1008.4 1008.3 0.0
29/11:30am 21.1 18.4 16.7 76 2.7 NE 26 33 14 18 1008.7 - 0.0
29/11:00am 24.4 22.4 16.4 61 4.9 N 22 30 12 16 1009.2 - 0.0
29/10:30am 24.0 22.6 16.5 63 4.6 N 19 28 10 15 1009.7 - 0.0
29/10:00am 22.7 20.1 15.9 65 4.1 N 24 35 13 19 1009.6 - 0.0
29/09:30am 22.1 20.0 16.1 69 3.6 N 22 30 12 16 1009.8 - 0.0
29/09:00am 20.6 19.7 16.8 79 2.3 N 17 20 9 11 1009.7 1009.6 0.0
29/08:30am 19.5 19.4 16.9 85 1.6 N 13 22 7 12 1009.8 - 0.0
29/08:00am 18.4 17.3 16.4 88 1.2 NNE 17 20 9 11 1009.6 - 0.0
29/07:30am 17.4 14.5 16.0 91 0.8 NNE 26 30 14 16 1009.4 - 0.0
29/07:00am 16.8 15.8 15.6 93 0.7 NNE 15 20 8 11 1009.6 - 0.0
29/06:30am 16.8 14.9 15.3 91 0.9 NE 19 20 10 11 1009.6 - 0.0
29/06:00am 16.7 15.2 15.2 91 0.9 NNE 17 19 9 10 1009.5 1009.4 0.0
29/05:30am 16.3 15.3 14.7 90 0.9 NNE 13 17 7 9 1009.6 - 0.0
29/05:00am 14.4 13.9 12.6 89 1.0 NNE 7 9 4 5 1009.8 - 0.0
29/04:30am 15.2 14.9 12.8 85 1.3 N 6 6 3 3 1010.1 - 0.0
29/04:00am 15.5 15.1 12.4 82 1.7 NE 6 7 3 4 1010.5 - 0.0
29/03:30am 15.8 16.5 12.1 78 2.0 CALM 0 0 0 0 1010.7 - 0.0
29/03:00am 15.8 16.5 12.3 80 1.9 CALM 0 0 0 0 1011.2 1011.1 0.0
29/02:30am 15.7 15.7 12.4 81 1.8 NE 4 7 2 4 1011.7 - 0.0
29/02:00am 15.8 16.7 12.9 83 1.6 CALM 0 0 0 0 1012.1 - 0.0
29/01:30am 15.2 15.2 13.6 90 0.9 WNW 6 9 3 5 1012.3 - 0.0
29/01:00am 15.4 14.6 12.9 85 1.4 W 9 9 5 5 1012.8 - 0.0
29/12:30am 15.6 16.2 11.9 78 2.0 CALM 0 2 0 1 1013.1 - 0.0
29/12:00am 15.8 16.2 11.1 73 2.5 CALM 0 0 0 0 1013.1 1013.0 0.0
 
Date/Time
EDT
Temp
°C
App
Temp
°C
Dew
Point
°C
Rel
Hum
%
Delta-T
°C
Wind Press
QNH
hPa
Press
MSL
hPa
Rain since
9am
mm
Dir  Spd
km/h
Gust
km/h
Spd
kts
Gust
kts
28/11:30pm 14.7 15.0 10.9 78 2.0 CALM 0 0 0 0 1013.2 - 0.0
28/11:00pm 15.4 15.9 11.5 77 2.1 CALM 0 0 0 0 1013.4 - 0.0
28/10:30pm 15.1 15.9 12.7 85 1.3 CALM 0 0 0 0 1013.5 - 0.0
28/10:00pm 14.8 14.3 12.0 83 1.5 NNE 6 6 3 3 1013.4 - 0.0
28/09:30pm 14.3 13.6 11.9 85 1.3 NNE 7 9 4 5 1013.4 - 0.0
28/09:00pm 14.7 14.0 12.1 84 1.4 NNE 7 9 4 5 1013.5 1013.4 0.0
28/08:30pm 15.3 14.9 12.9 85 1.3 NE 7 7 4 4 1013.3 - 0.0
28/08:00pm 15.7 15.5 13.6 87 1.2 NE 7 9 4 5 1013.0 - 0.0
28/07:30pm 16.0 15.5 13.7 86 1.3 ENE 9 11 5 6 1012.8 - 0.0
28/07:00pm 16.6 16.2 14.0 84 1.5 ENE 9 11 5 6 1013.0 - 0.0
28/06:30pm 17.4 17.4 14.1 81 1.9 ENE 7 7 4 4 1012.9 - 0.0
28/06:00pm 18.2 18.1 14.0 76 2.4 ENE 7 9 4 5 1012.9 1012.8 0.0
28/05:30pm 19.1 18.9 13.1 68 3.4 ESE 6 7 3 4 1012.8 - 0.0
28/05:00pm 19.5 19.2 13.2 67 3.6 SE 7 9 4 5 1012.7 - 0.0
28/04:30pm 19.7 19.1 13.6 68 3.5 S 9 11 5 6 1012.7 - 0.0
28/04:00pm 19.3 18.2 13.1 67 3.5 S 11 13 6 7 1012.9 - 0.0
28/03:30pm 20.2 18.7 13.2 64 4.0 S 13 15 7 8 1013.1 - 0.0
28/03:00pm 20.4 18.3 13.6 65 3.9 SSW 17 19 9 10 1013.5 1013.4 0.0
28/02:30pm 19.5 17.1 12.5 64 3.9 SSW 17 20 9 11 1013.8 - 0.0
28/02:00pm 19.4 17.4 12.6 64 3.8 SSW 15 17 8 9 1014.0 - 0.0
28/01:30pm 19.2 16.3 12.2 64 3.9 SSW 19 20 10 11 1014.4 - 0.0
28/01:00pm 19.4 17.6 12.0 62 4.1 SSW 13 20 7 11 1014.5 - 0.0
28/12:30pm 20.2 18.1 9.9 51 5.5 SW 11 15 6 8 1014.8 - 0.0
28/12:00pm 20.7 18.6 9.7 49 5.9 W 11 15 6 8 1014.9 1014.9 0.0
28/11:30am 19.7 17.6 9.8 52 5.3 W 11 13 6 7 1015.0 - 0.0
28/11:00am 19.3 16.6 10.2 55 4.9 W 15 17 8 9 1015.1 - 0.0
28/10:30am 18.5 16.2 10.3 59 4.4 WNW 13 17 7 9 1015.2 - 0.0
28/10:00am 18.3 16.4 11.9 66 3.5 W 13 17 7 9 1014.9 - 0.0
28/09:30am 17.2 15.3 11.7 70 3.0 W 13 17 7 9 1014.6 - 0.0
28/09:00am 17.1 15.0 11.0 67 3.3 W 13 17 7 9 1014.3 1014.2 1.4
28/08:30am 16.6 14.6 10.2 66 3.4 WNW 11 15 6 8 1014.0 - 1.4
28/08:00am 15.8 13.4 9.9 68 3.1 NW 13 17 7 9 1013.9 - 1.4
28/07:30am 13.8 11.8 10.1 78 1.9 N 11 13 6 7 1013.7 - 1.4
28/07:00am 14.1 11.6 9.8 75 2.2 NW 13 17 7 9 1013.4 - 1.4
28/06:30am 14.0 11.9 9.9 76 2.1 NW 11 13 6 7 1013.3 - 1.4
28/06:00am 14.6 12.6 10.0 74 2.4 WNW 11 13 6 7 1013.1 1013.0 1.4
28/05:30am 14.3 12.7 10.3 77 2.1 WNW 9 13 5 7 1013.0 - 1.4
28/05:00am 14.5 13.0 10.5 77 2.1 NW 9 13 5 7 1012.8 - 1.4
28/04:30am 15.3 11.2 10.1 71 2.7 W 22 30 12 16 1012.9 - 1.4
28/04:00am 15.4 11.1 10.7 73 2.5 W 24 28 13 15 1013.0 - 1.4
28/03:30am 15.3 11.5 11.2 76 2.2 W 22 28 12 15 1013.3 - 1.4
28/03:00am 15.4 10.8 11.1 75 2.3 W 26 32 14 17 1013.1 1013.0 1.4
28/02:30am 15.4 11.0 11.7 78 2.0 W 26 33 14 18 1013.4 - 1.4
28/02:00am 15.6 10.4 11.7 77 2.1 W 30 35 16 19 1013.3 - 1.4
28/01:30am 15.4 11.6 13.6 89 1.0 W 26 32 14 17 1013.2 - 1.4
28/01:00am 15.5 10.8 13.2 86 1.3 W 30 35 16 19 1013.3 - 1.4
28/12:30am 15.6 10.4 12.9 84 1.5 W 32 35 17 19 1013.4 - 1.4
28/12:00am 15.8 11.0 12.9 83 1.6 W 30 37 16 20 1013.0 1012.9 1.4
 
Date/Time
EDT
Temp
°C
App
Temp
°C
Dew
Point
°C
Rel
Hum
%
Delta-T
°C
Wind Press
QNH
hPa
Press
MSL
hPa
Rain since
9am
mm
Dir  Spd
km/h
Gust
km/h
Spd
kts
Gust
kts
27/11:30pm 15.6 11.0 13.6 88 1.1 W 30 35 16 19 1012.9 - 1.4
27/11:00pm 15.8 11.7 13.8 88 1.1 W 28 35 15 19 1012.8 - 1.4
27/10:30pm 15.8 13.4 14.4 91 0.8 W 20 28 11 15 1012.9 - 1.4
27/10:00pm 15.7 12.4 14.1 90 0.9 WSW 24 37 13 20 1013.2 - 1.4
27/09:30pm 15.8 10.9 14.2 90 0.9 WSW 33 39 18 21 1013.1 - 1.4
27/09:00pm 16.0 9.2 14.4 90 0.9 WSW 43 56 23 30 1013.3 1013.3 1.2
27/08:30pm 16.4 8.7 14.3 87 1.2 WSW 48 61 26 33 1012.4 - 0.4
27/08:20pm 16.6 7.7 14.3 86 1.3 WSW 54 72 29 39 1012.1 - 0.2
27/08:00pm 16.6 6.5 14.7 88 1.1 SW 61 72 33 39 1011.4 - 0.2
27/07:30pm 18.6 8.9 14.6 77 2.3 SW 59 72 32 39 1011.1 - 0.0
27/07:25pm 19.0 10.0 14.1 73 2.8 WSW 54 72 29 39 1011.6 - 0.0
27/07:00pm 19.8 9.5 14.1 69 3.3 WSW 61 74 33 40 1010.7 - 0.0
27/06:30pm 21.3 9.9 15.1 67 3.7 WSW 69 89 37 48 1008.9 - 0.0
27/06:21pm 21.4 10.8 16.3 72 3.1 WSW 67 87 36 47 1008.1 - 0.0
27/06:09pm 22.3 14.5 17.1 72 3.2 SW 54 72 29 39 1007.7 - 0.0
27/06:05pm 22.9 14.3 16.7 68 3.8 SW 57 72 31 39 1007.3 - 0.0
27/06:03pm 24.2 19.1 17.8 67 4.0 W 41 65 22 35 1007.1 - 0.0
27/06:02pm 23.8 19.7 18.2 71 3.5 WNW 37 48 20 26 1007.1 - 0.0
27/06:00pm 23.0 19.6 18.1 74 3.1 NNE 33 43 18 23 1004.6 1003.9 0.0
27/05:30pm 22.2 16.6 17.5 74 2.9 NNE 43 50 23 27 1003.2 - 0.0
27/05:00pm 22.6 17.0 17.4 72 3.2 NNE 43 50 23 27 1003.3 - 0.0
27/04:30pm 23.3 17.7 17.5 70 3.6 NNE 43 50 23 27 1003.9 - 0.0
27/04:00pm 23.0 17.2 17.4 70 3.5 NNE 44 50 24 27 1004.2 - 0.0
27/03:30pm 23.1 17.3 17.3 70 3.6 NNE 44 54 24 29 1004.3 - 0.0
27/03:00pm 22.7 18.1 17.2 71 3.4 NNE 37 44 20 24 1004.9 1004.9 0.0
27/02:30pm 23.2 18.0 17.4 70 3.6 NNE 41 46 22 25 1005.1 - 0.0
27/02:00pm 22.9 17.9 17.1 70 3.6 NNE 39 46 21 25 1005.8 - 0.0
27/01:30pm 23.5 18.7 16.7 65 4.2 NNE 37 43 20 23 1006.8 - 0.0
27/01:00pm 23.3 17.7 16.6 66 4.1 NNE 41 48 22 26 1007.1 - 0.0
27/12:30pm 23.5 17.2 16.1 63 4.5 NNE 44 52 24 28 1007.4 - 0.0
27/12:00pm 23.3 17.2 16.2 64 4.3 NNE 43 50 23 27 1008.2 1008.0 0.0
27/11:30am 22.9 16.8 16.1 65 4.1 NNE 43 50 23 27 1008.7 - 0.0
27/11:00am 22.4 16.6 15.9 66 3.9 NNE 41 46 22 25 1009.2 - 0.0
27/10:30am 22.3 16.5 16.0 67 3.8 NNE 41 52 22 28 1009.5 - 0.0
27/10:00am 22.1 16.7 16.0 68 3.7 NNE 39 44 21 24 1010.2 - 0.0
27/09:30am 21.7 17.1 16.1 70 3.4 NNE 35 43 19 23 1010.5 - 0.0
27/09:00am 21.8 16.0 16.0 69 3.5 NNE 41 52 22 28 1010.4 - 0.0
27/08:30am 20.7 16.3 16.6 77 2.5 NNE 35 43 19 23 1010.8 - 0.0

Other Formats:

Comma delimited format used in spreadsheet applications
http://www.bom.gov.au/fwo/IDV60801/IDV60801.94933.axf

JavaScript Object Notation format (JSON) in row-major order
http://www.bom.gov.au/fwo/IDV60801/IDV60801.94933.json